sensor_id;sensor_type;location;lat;lon;timestamp;P1;durP1;ratioP1;P2;durP2;ratioP2
10633;SDS011;5365;51.640;8.106;2022-12-29T00:00:43;1.40;;;1.30;;
10633;SDS011;5365;51.640;8.106;2022-12-29T00:03:04;1.07;;;1.00;;
10633;SDS011;5365;51.640;8.106;2022-12-29T00:05:26;0.97;;;0.97;;
10633;SDS011;5365;51.640;8.106;2022-12-29T00:07:48;1.37;;;1.27;;
10633;SDS011;5365;51.640;8.106;2022-12-29T00:10:10;1.33;;;1.30;;
10633;SDS011;5365;51.640;8.106;2022-12-29T00:12:31;1.07;;;1.03;;
10633;SDS011;5365;51.640;8.106;2022-12-29T00:15:13;0.97;;;0.97;;
10633;SDS011;5365;51.640;8.106;2022-12-29T00:17:53;1.27;;;1.17;;
10633;SDS011;5365;51.640;8.106;2022-12-29T00:20:15;0.90;;;0.90;;
10633;SDS011;5365;51.640;8.106;2022-12-29T00:22:55;1.03;;;1.00;;
10633;SDS011;5365;51.640;8.106;2022-12-29T00:25:36;1.77;;;1.00;;
10633;SDS011;5365;51.640;8.106;2022-12-29T00:28:16;1.33;;;1.23;;
10633;SDS011;5365;51.640;8.106;2022-12-29T00:31:13;0.83;;;0.83;;
10633;SDS011;5365;51.640;8.106;2022-12-29T00:33:54;0.97;;;0.97;;
10633;SDS011;5365;51.640;8.106;2022-12-29T00:36:35;0.90;;;0.90;;
10633;SDS011;5365;51.640;8.106;2022-12-29T00:39:00;0.90;;;0.90;;
10633;SDS011;5365;51.640;8.106;2022-12-29T00:41:43;0.80;;;0.80;;
10633;SDS011;5365;51.640;8.106;2022-12-29T00:44:24;0.90;;;0.90;;
10633;SDS011;5365;51.640;8.106;2022-12-29T00:46:46;1.70;;;0.97;;
10633;SDS011;5365;51.640;8.106;2022-12-29T00:49:08;0.70;;;0.70;;
10633;SDS011;5365;51.640;8.106;2022-12-29T00:51:50;1.07;;;0.80;;
10633;SDS011;5365;51.640;8.106;2022-12-29T00:54:12;0.80;;;0.80;;
10633;SDS011;5365;51.640;8.106;2022-12-29T00:56:34;1.93;;;0.80;;
10633;SDS011;5365;51.640;8.106;2022-12-29T00:58:59;0.77;;;0.77;;
10633;SDS011;5365;51.640;8.106;2022-12-29T01:01:24;1.40;;;0.97;;
10633;SDS011;5365;51.640;8.106;2022-12-29T01:03:46;0.60;;;0.60;;
10633;SDS011;5365;51.640;8.106;2022-12-29T01:06:09;1.73;;;0.90;;
10633;SDS011;5365;51.640;8.106;2022-12-29T01:08:31;0.67;;;0.67;;
10633;SDS011;5365;51.640;8.106;2022-12-29T01:11:01;0.60;;;0.60;;
10633;SDS011;5365;51.640;8.106;2022-12-29T01:13:24;0.60;;;0.60;;
10633;SDS011;5365;51.640;8.106;2022-12-29T01:15:50;0.70;;;0.70;;
10633;SDS011;5365;51.640;8.106;2022-12-29T01:18:12;0.90;;;0.90;;
10633;SDS011;5365;51.640;8.106;2022-12-29T01:20:34;0.50;;;0.50;;
10633;SDS011;5365;51.640;8.106;2022-12-29T01:22:57;0.63;;;0.63;;
10633;SDS011;5365;51.640;8.106;2022-12-29T01:25:19;0.70;;;0.70;;
10633;SDS011;5365;51.640;8.106;2022-12-29T01:27:41;0.50;;;0.50;;
10633;SDS011;5365;51.640;8.106;2022-12-29T01:30:03;0.63;;;0.63;;
10633;SDS011;5365;51.640;8.106;2022-12-29T01:32:26;0.60;;;0.60;;
10633;SDS011;5365;51.640;8.106;2022-12-29T01:34:47;0.57;;;0.57;;
10633;SDS011;5365;51.640;8.106;2022-12-29T01:37:09;0.60;;;0.60;;
10633;SDS011;5365;51.640;8.106;2022-12-29T01:39:31;0.50;;;0.50;;
10633;SDS011;5365;51.640;8.106;2022-12-29T01:41:53;0.83;;;0.50;;
10633;SDS011;5365;51.640;8.106;2022-12-29T01:47:21;0.40;;;0.40;;
10633;SDS011;5365;51.640;8.106;2022-12-29T01:49:47;0.47;;;0.47;;
10633;SDS011;5365;51.640;8.106;2022-12-29T01:52:08;1.27;;;0.40;;
10633;SDS011;5365;51.640;8.106;2022-12-29T01:54:34;0.50;;;0.50;;
10633;SDS011;5365;51.640;8.106;2022-12-29T01:56:59;0.50;;;0.50;;
10633;SDS011;5365;51.640;8.106;2022-12-29T01:59:24;0.40;;;0.40;;
10633;SDS011;5365;51.640;8.106;2022-12-29T02:01:52;0.30;;;0.30;;
10633;SDS011;5365;51.640;8.106;2022-12-29T02:04:14;0.50;;;0.50;;
10633;SDS011;5365;51.640;8.106;2022-12-29T02:06:50;1.30;;;0.40;;
10633;SDS011;5365;51.640;8.106;2022-12-29T02:09:14;0.40;;;0.40;;
10633;SDS011;5365;51.640;8.106;2022-12-29T02:11:36;1.27;;;0.43;;
10633;SDS011;5365;51.640;8.106;2022-12-29T02:13:58;0.70;;;0.40;;
10633;SDS011;5365;51.640;8.106;2022-12-29T02:19:09;0.50;;;0.50;;
10633;SDS011;5365;51.640;8.106;2022-12-29T02:33:17;0.53;;;0.53;;
10633;SDS011;5365;51.640;8.106;2022-12-29T02:40:36;1.17;;;0.50;;
10633;SDS011;5365;51.640;8.106;2022-12-29T02:43:28;0.40;;;0.40;;
10633;SDS011;5365;51.640;8.106;2022-12-29T02:46:15;0.33;;;0.33;;
10633;SDS011;5365;51.640;8.106;2022-12-29T02:48:43;0.50;;;0.50;;
10633;SDS011;5365;51.640;8.106;2022-12-29T02:51:18;0.33;;;0.33;;
10633;SDS011;5365;51.640;8.106;2022-12-29T02:53:42;0.47;;;0.47;;
10633;SDS011;5365;51.640;8.106;2022-12-29T02:56:24;0.60;;;0.60;;
10633;SDS011;5365;51.640;8.106;2022-12-29T02:58:46;1.20;;;0.40;;
10633;SDS011;5365;51.640;8.106;2022-12-29T03:07:24;0.30;;;0.30;;
10633;SDS011;5365;51.640;8.106;2022-12-29T03:10:18;0.40;;;0.40;;
10633;SDS011;5365;51.640;8.106;2022-12-29T03:16:05;0.60;;;0.33;;
10633;SDS011;5365;51.640;8.106;2022-12-29T03:18:41;2.00;;;0.70;;
10633;SDS011;5365;51.640;8.106;2022-12-29T03:24:11;0.30;;;0.30;;
10633;SDS011;5365;51.640;8.106;2022-12-29T03:26:34;1.00;;;0.53;;
10633;SDS011;5365;51.640;8.106;2022-12-29T03:28:57;0.67;;;0.40;;
10633;SDS011;5365;51.640;8.106;2022-12-29T03:31:22;0.40;;;0.40;;
10633;SDS011;5365;51.640;8.106;2022-12-29T03:33:47;0.53;;;0.40;;
10633;SDS011;5365;51.640;8.106;2022-12-29T03:36:10;0.63;;;0.50;;
10633;SDS011;5365;51.640;8.106;2022-12-29T03:41:13;0.40;;;0.40;;
10633;SDS011;5365;51.640;8.106;2022-12-29T03:43:39;0.70;;;0.50;;
10633;SDS011;5365;51.640;8.106;2022-12-29T03:46:00;0.40;;;0.40;;
10633;SDS011;5365;51.640;8.106;2022-12-29T03:48:22;0.70;;;0.53;;
10633;SDS011;5365;51.640;8.106;2022-12-29T03:50:45;0.70;;;0.60;;
10633;SDS011;5365;51.640;8.106;2022-12-29T03:53:07;0.57;;;0.57;;
10633;SDS011;5365;51.640;8.106;2022-12-29T03:55:29;0.33;;;0.33;;
10633;SDS011;5365;51.640;8.106;2022-12-29T03:57:51;0.50;;;0.50;;
10633;SDS011;5365;51.640;8.106;2022-12-29T04:00:21;0.60;;;0.60;;
10633;SDS011;5365;51.640;8.106;2022-12-29T04:02:44;0.30;;;0.30;;
10633;SDS011;5365;51.640;8.106;2022-12-29T04:05:12;0.90;;;0.60;;
10633;SDS011;5365;51.640;8.106;2022-12-29T04:07:33;0.40;;;0.40;;
10633;SDS011;5365;51.640;8.106;2022-12-29T04:09:57;0.63;;;0.50;;
10633;SDS011;5365;51.640;8.106;2022-12-29T04:12:21;1.43;;;0.60;;
10633;SDS011;5365;51.640;8.106;2022-12-29T04:14:42;0.40;;;0.40;;
10633;SDS011;5365;51.640;8.106;2022-12-29T04:17:04;0.40;;;0.40;;
10633;SDS011;5365;51.640;8.106;2022-12-29T04:19:26;0.70;;;0.70;;
10633;SDS011;5365;51.640;8.106;2022-12-29T04:21:48;0.40;;;0.40;;
10633;SDS011;5365;51.640;8.106;2022-12-29T04:24:11;0.47;;;0.47;;
10633;SDS011;5365;51.640;8.106;2022-12-29T04:26:35;0.40;;;0.40;;
10633;SDS011;5365;51.640;8.106;2022-12-29T04:29:29;0.50;;;0.50;;
10633;SDS011;5365;51.640;8.106;2022-12-29T04:32:16;0.40;;;0.40;;
10633;SDS011;5365;51.640;8.106;2022-12-29T04:34:42;0.83;;;0.60;;
10633;SDS011;5365;51.640;8.106;2022-12-29T04:37:04;0.87;;;0.60;;
10633;SDS011;5365;51.640;8.106;2022-12-29T04:39:26;0.70;;;0.40;;
10633;SDS011;5365;51.640;8.106;2022-12-29T04:41:48;0.37;;;0.37;;
10633;SDS011;5365;51.640;8.106;2022-12-29T04:44:13;0.37;;;0.37;;
10633;SDS011;5365;51.640;8.106;2022-12-29T04:46:52;0.50;;;0.50;;
10633;SDS011;5365;51.640;8.106;2022-12-29T04:49:32;0.50;;;0.50;;
10633;SDS011;5365;51.640;8.106;2022-12-29T04:52:16;0.43;;;0.43;;
10633;SDS011;5365;51.640;8.106;2022-12-29T04:54:39;0.30;;;0.30;;
10633;SDS011;5365;51.640;8.106;2022-12-29T04:57:06;0.50;;;0.50;;
10633;SDS011;5365;51.640;8.106;2022-12-29T04:59:31;0.33;;;0.33;;
10633;SDS011;5365;51.640;8.106;2022-12-29T05:01:53;0.50;;;0.50;;
10633;SDS011;5365;51.640;8.106;2022-12-29T05:04:16;0.40;;;0.40;;
10633;SDS011;5365;51.640;8.106;2022-12-29T05:06:38;0.47;;;0.40;;
10633;SDS011;5365;51.640;8.106;2022-12-29T05:08:59;0.50;;;0.50;;
10633;SDS011;5365;51.640;8.106;2022-12-29T05:11:22;0.30;;;0.30;;
10633;SDS011;5365;51.640;8.106;2022-12-29T05:13:45;0.67;;;0.50;;
10633;SDS011;5365;51.640;8.106;2022-12-29T05:16:09;0.60;;;0.60;;
10633;SDS011;5365;51.640;8.106;2022-12-29T05:18:31;0.70;;;0.70;;
10633;SDS011;5365;51.640;8.106;2022-12-29T05:20:53;0.40;;;0.40;;
10633;SDS011;5365;51.640;8.106;2022-12-29T05:23:17;0.87;;;0.67;;
10633;SDS011;5365;51.640;8.106;2022-12-29T05:25:45;0.40;;;0.40;;
10633;SDS011;5365;51.640;8.106;2022-12-29T05:28:13;0.40;;;0.40;;
10633;SDS011;5365;51.640;8.106;2022-12-29T05:30:39;0.50;;;0.50;;
10633;SDS011;5365;51.640;8.106;2022-12-29T05:33:01;0.40;;;0.40;;
10633;SDS011;5365;51.640;8.106;2022-12-29T05:35:23;0.83;;;0.70;;
10633;SDS011;5365;51.640;8.106;2022-12-29T05:37:45;0.60;;;0.47;;
10633;SDS011;5365;51.640;8.106;2022-12-29T05:40:07;0.60;;;0.60;;
10633;SDS011;5365;51.640;8.106;2022-12-29T05:42:29;0.47;;;0.47;;
10633;SDS011;5365;51.640;8.106;2022-12-29T05:45:09;0.50;;;0.50;;
10633;SDS011;5365;51.640;8.106;2022-12-29T05:47:50;0.50;;;0.50;;
10633;SDS011;5365;51.640;8.106;2022-12-29T05:50:47;1.07;;;0.70;;
10633;SDS011;5365;51.640;8.106;2022-12-29T05:53:12;1.07;;;1.07;;
10633;SDS011;5365;51.640;8.106;2022-12-29T05:55:35;1.07;;;0.40;;
10633;SDS011;5365;51.640;8.106;2022-12-29T05:57:57;0.40;;;0.37;;
10633;SDS011;5365;51.640;8.106;2022-12-29T06:00:19;0.77;;;0.53;;
10633;SDS011;5365;51.640;8.106;2022-12-29T06:02:41;0.97;;;0.60;;
10633;SDS011;5365;51.640;8.106;2022-12-29T06:05:03;0.60;;;0.60;;
10633;SDS011;5365;51.640;8.106;2022-12-29T06:07:25;1.97;;;0.50;;
10633;SDS011;5365;51.640;8.106;2022-12-29T06:09:47;0.40;;;0.40;;
10633;SDS011;5365;51.640;8.106;2022-12-29T06:12:08;0.47;;;0.47;;
10633;SDS011;5365;51.640;8.106;2022-12-29T06:14:33;0.60;;;0.60;;
10633;SDS011;5365;51.640;8.106;2022-12-29T06:16:57;0.60;;;0.60;;
10633;SDS011;5365;51.640;8.106;2022-12-29T06:19:19;0.60;;;0.60;;
10633;SDS011;5365;51.640;8.106;2022-12-29T06:21:40;0.77;;;0.70;;
10633;SDS011;5365;51.640;8.106;2022-12-29T06:24:04;1.08;;;0.70;;
10633;SDS011;5365;51.640;8.106;2022-12-29T06:26:28;0.70;;;0.70;;
10633;SDS011;5365;51.640;8.106;2022-12-29T06:28:51;0.63;;;0.47;;
10633;SDS011;5365;51.640;8.106;2022-12-29T06:31:13;0.40;;;0.40;;
10633;SDS011;5365;51.640;8.106;2022-12-29T06:33:34;0.70;;;0.70;;
10633;SDS011;5365;51.640;8.106;2022-12-29T06:35:56;0.60;;;0.60;;
10633;SDS011;5365;51.640;8.106;2022-12-29T06:38:18;0.70;;;0.70;;
10633;SDS011;5365;51.640;8.106;2022-12-29T06:40:41;0.50;;;0.50;;
10633;SDS011;5365;51.640;8.106;2022-12-29T06:43:18;2.00;;;0.50;;
10633;SDS011;5365;51.640;8.106;2022-12-29T06:45:52;0.53;;;0.53;;
10633;SDS011;5365;51.640;8.106;2022-12-29T06:48:14;0.50;;;0.50;;
10633;SDS011;5365;51.640;8.106;2022-12-29T06:50:36;2.10;;;0.60;;
10633;SDS011;5365;51.640;8.106;2022-12-29T06:52:57;0.50;;;0.50;;
10633;SDS011;5365;51.640;8.106;2022-12-29T06:55:19;0.73;;;0.70;;
10633;SDS011;5365;51.640;8.106;2022-12-29T06:57:42;0.80;;;0.50;;
10633;SDS011;5365;51.640;8.106;2022-12-29T07:00:04;0.60;;;0.60;;
10633;SDS011;5365;51.640;8.106;2022-12-29T07:02:26;0.73;;;0.70;;
10633;SDS011;5365;51.640;8.106;2022-12-29T07:04:48;0.40;;;0.40;;
10633;SDS011;5365;51.640;8.106;2022-12-29T07:07:10;0.57;;;0.53;;
10633;SDS011;5365;51.640;8.106;2022-12-29T07:09:31;0.40;;;0.40;;
10633;SDS011;5365;51.640;8.106;2022-12-29T07:11:53;0.60;;;0.60;;
10633;SDS011;5365;51.640;8.106;2022-12-29T07:14:15;0.40;;;0.40;;
10633;SDS011;5365;51.640;8.106;2022-12-29T07:16:36;0.50;;;0.50;;
10633;SDS011;5365;51.640;8.106;2022-12-29T07:18:58;0.73;;;0.60;;
10633;SDS011;5365;51.640;8.106;2022-12-29T07:21:20;1.73;;;0.88;;
10633;SDS011;5365;51.640;8.106;2022-12-29T07:23:42;0.88;;;0.60;;
10633;SDS011;5365;51.640;8.106;2022-12-29T07:26:05;0.30;;;0.30;;
10633;SDS011;5365;51.640;8.106;2022-12-29T07:28:29;1.38;;;0.52;;
10633;SDS011;5365;51.640;8.106;2022-12-29T07:30:51;0.80;;;0.80;;
10633;SDS011;5365;51.640;8.106;2022-12-29T07:33:13;1.40;;;0.90;;
10633;SDS011;5365;51.640;8.106;2022-12-29T07:35:34;1.03;;;0.47;;
10633;SDS011;5365;51.640;8.106;2022-12-29T07:37:56;0.77;;;0.50;;
10633;SDS011;5365;51.640;8.106;2022-12-29T07:40:18;2.47;;;0.85;;
10633;SDS011;5365;51.640;8.106;2022-12-29T07:42:39;0.80;;;0.63;;
10633;SDS011;5365;51.640;8.106;2022-12-29T07:45:03;0.60;;;0.60;;
10633;SDS011;5365;51.640;8.106;2022-12-29T07:47:29;1.13;;;0.60;;
10633;SDS011;5365;51.640;8.106;2022-12-29T07:49:51;0.73;;;0.73;;
10633;SDS011;5365;51.640;8.106;2022-12-29T07:52:13;0.70;;;0.70;;
10633;SDS011;5365;51.640;8.106;2022-12-29T07:54:35;0.53;;;0.53;;
10633;SDS011;5365;51.640;8.106;2022-12-29T07:56:56;1.07;;;0.80;;
10633;SDS011;5365;51.640;8.106;2022-12-29T07:59:21;1.70;;;0.50;;
10633;SDS011;5365;51.640;8.106;2022-12-29T08:01:43;1.30;;;1.10;;
10633;SDS011;5365;51.640;8.106;2022-12-29T08:04:05;1.60;;;0.70;;
10633;SDS011;5365;51.640;8.106;2022-12-29T08:06:27;1.60;;;0.67;;
10633;SDS011;5365;51.640;8.106;2022-12-29T08:08:49;2.03;;;0.60;;
10633;SDS011;5365;51.640;8.106;2022-12-29T08:11:11;1.67;;;0.80;;
10633;SDS011;5365;51.640;8.106;2022-12-29T08:13:33;0.83;;;0.70;;
10633;SDS011;5365;51.640;8.106;2022-12-29T08:15:57;1.00;;;0.70;;
10633;SDS011;5365;51.640;8.106;2022-12-29T08:18:19;1.13;;;0.53;;
10633;SDS011;5365;51.640;8.106;2022-12-29T08:20:40;0.43;;;0.43;;
10633;SDS011;5365;51.640;8.106;2022-12-29T08:23:02;0.67;;;0.60;;
10633;SDS011;5365;51.640;8.106;2022-12-29T08:25:24;0.93;;;0.50;;
10633;SDS011;5365;51.640;8.106;2022-12-29T08:27:46;1.97;;;0.70;;
10633;SDS011;5365;51.640;8.106;2022-12-29T08:30:07;1.43;;;0.60;;
10633;SDS011;5365;51.640;8.106;2022-12-29T08:32:30;1.97;;;1.10;;
10633;SDS011;5365;51.640;8.106;2022-12-29T08:34:52;0.63;;;0.63;;
10633;SDS011;5365;51.640;8.106;2022-12-29T08:37:13;2.07;;;0.90;;
10633;SDS011;5365;51.640;8.106;2022-12-29T08:39:35;0.60;;;0.60;;
10633;SDS011;5365;51.640;8.106;2022-12-29T08:41:57;1.13;;;0.70;;
10633;SDS011;5365;51.640;8.106;2022-12-29T08:44:18;1.03;;;0.70;;
10633;SDS011;5365;51.640;8.106;2022-12-29T08:46:40;0.80;;;0.80;;
10633;SDS011;5365;51.640;8.106;2022-12-29T08:49:02;1.00;;;0.90;;
10633;SDS011;5365;51.640;8.106;2022-12-29T08:51:24;0.80;;;0.80;;
10633;SDS011;5365;51.640;8.106;2022-12-29T08:53:46;2.97;;;0.93;;
10633;SDS011;5365;51.640;8.106;2022-12-29T08:56:08;0.97;;;0.87;;
10633;SDS011;5365;51.640;8.106;2022-12-29T08:58:39;1.53;;;0.90;;
10633;SDS011;5365;51.640;8.106;2022-12-29T09:01:01;1.47;;;1.33;;
10633;SDS011;5365;51.640;8.106;2022-12-29T09:03:23;2.27;;;1.30;;
10633;SDS011;5365;51.640;8.106;2022-12-29T09:05:58;1.00;;;0.63;;
10633;SDS011;5365;51.640;8.106;2022-12-29T09:08:20;1.23;;;0.80;;
10633;SDS011;5365;51.640;8.106;2022-12-29T09:10:46;0.60;;;0.60;;
10633;SDS011;5365;51.640;8.106;2022-12-29T09:13:08;1.63;;;0.83;;
10633;SDS011;5365;51.640;8.106;2022-12-29T09:15:29;1.87;;;0.90;;
10633;SDS011;5365;51.640;8.106;2022-12-29T09:17:51;1.40;;;0.93;;
10633;SDS011;5365;51.640;8.106;2022-12-29T09:20:13;1.63;;;1.10;;
10633;SDS011;5365;51.640;8.106;2022-12-29T09:22:39;2.03;;;1.07;;
10633;SDS011;5365;51.640;8.106;2022-12-29T09:25:00;3.63;;;0.90;;
10633;SDS011;5365;51.640;8.106;2022-12-29T09:27:22;2.90;;;1.03;;
10633;SDS011;5365;51.640;8.106;2022-12-29T09:29:44;1.70;;;0.70;;
10633;SDS011;5365;51.640;8.106;2022-12-29T09:32:06;4.00;;;1.10;;
10633;SDS011;5365;51.640;8.106;2022-12-29T09:34:29;1.87;;;1.00;;
10633;SDS011;5365;51.640;8.106;2022-12-29T09:36:51;4.03;;;0.80;;
10633;SDS011;5365;51.640;8.106;2022-12-29T09:39:13;1.70;;;1.03;;
10633;SDS011;5365;51.640;8.106;2022-12-29T09:41:36;2.60;;;1.30;;
10633;SDS011;5365;51.640;8.106;2022-12-29T09:46:48;2.70;;;1.10;;
10633;SDS011;5365;51.640;8.106;2022-12-29T09:51:55;2.07;;;0.93;;
10633;SDS011;5365;51.640;8.106;2022-12-29T09:54:24;0.83;;;0.77;;
10633;SDS011;5365;51.640;8.106;2022-12-29T09:56:49;1.97;;;1.17;;
10633;SDS011;5365;51.640;8.106;2022-12-29T09:59:17;2.20;;;1.10;;
10633;SDS011;5365;51.640;8.106;2022-12-29T10:01:59;1.97;;;0.87;;
10633;SDS011;5365;51.640;8.106;2022-12-29T10:04:50;1.67;;;1.03;;
10633;SDS011;5365;51.640;8.106;2022-12-29T10:07:15;2.20;;;0.90;;
10633;SDS011;5365;51.640;8.106;2022-12-29T10:18:23;2.27;;;1.30;;
10633;SDS011;5365;51.640;8.106;2022-12-29T10:25:43;1.33;;;0.80;;
10633;SDS011;5365;51.640;8.106;2022-12-29T10:28:17;1.13;;;1.00;;
10633;SDS011;5365;51.640;8.106;2022-12-29T10:30:39;1.47;;;1.27;;
10633;SDS011;5365;51.640;8.106;2022-12-29T10:33:02;1.63;;;1.10;;
10633;SDS011;5365;51.640;8.106;2022-12-29T10:35:38;1.80;;;0.97;;
10633;SDS011;5365;51.640;8.106;2022-12-29T10:38:03;1.10;;;1.10;;
10633;SDS011;5365;51.640;8.106;2022-12-29T10:40:42;2.27;;;1.13;;
10633;SDS011;5365;51.640;8.106;2022-12-29T10:45:58;1.50;;;1.40;;
10633;SDS011;5365;51.640;8.106;2022-12-29T10:48:30;2.65;;;1.17;;
10633;SDS011;5365;51.640;8.106;2022-12-29T10:50:53;2.28;;;1.23;;
10633;SDS011;5365;51.640;8.106;2022-12-29T10:53:21;2.10;;;1.17;;
10633;SDS011;5365;51.640;8.106;2022-12-29T10:55:46;1.70;;;0.70;;
10633;SDS011;5365;51.640;8.106;2022-12-29T10:58:09;1.77;;;1.10;;
10633;SDS011;5365;51.640;8.106;2022-12-29T11:00:34;3.75;;;1.52;;
10633;SDS011;5365;51.640;8.106;2022-12-29T11:07:50;2.00;;;1.10;;
10633;SDS011;5365;51.640;8.106;2022-12-29T11:13:02;1.95;;;1.10;;
10633;SDS011;5365;51.640;8.106;2022-12-29T11:15:25;3.17;;;1.40;;
10633;SDS011;5365;51.640;8.106;2022-12-29T11:17:49;2.65;;;1.40;;
10633;SDS011;5365;51.640;8.106;2022-12-29T11:22:53;2.65;;;1.42;;
10633;SDS011;5365;51.640;8.106;2022-12-29T11:25:15;1.60;;;0.95;;
10633;SDS011;5365;51.640;8.106;2022-12-29T11:27:36;2.58;;;1.40;;
10633;SDS011;5365;51.640;8.106;2022-12-29T11:29:58;2.25;;;1.25;;
10633;SDS011;5365;51.640;8.106;2022-12-29T11:34:49;2.20;;;1.08;;
10633;SDS011;5365;51.640;8.106;2022-12-29T11:37:12;2.42;;;1.13;;
10633;SDS011;5365;51.640;8.106;2022-12-29T11:42:20;2.60;;;1.42;;
10633;SDS011;5365;51.640;8.106;2022-12-29T11:44:45;2.03;;;1.50;;
10633;SDS011;5365;51.640;8.106;2022-12-29T11:47:09;4.20;;;1.30;;
10633;SDS011;5365;51.640;8.106;2022-12-29T11:49:35;2.17;;;1.30;;
10633;SDS011;5365;51.640;8.106;2022-12-29T11:51:56;3.27;;;1.43;;
10633;SDS011;5365;51.640;8.106;2022-12-29T11:54:20;2.00;;;1.33;;
10633;SDS011;5365;51.640;8.106;2022-12-29T11:56:45;3.67;;;1.63;;
10633;SDS011;5365;51.640;8.106;2022-12-29T12:01:58;2.00;;;1.37;;
10633;SDS011;5365;51.640;8.106;2022-12-29T12:04:28;3.53;;;1.03;;
10633;SDS011;5365;51.640;8.106;2022-12-29T12:07:00;3.57;;;1.10;;
10633;SDS011;5365;51.640;8.106;2022-12-29T12:09:30;2.63;;;1.13;;
10633;SDS011;5365;51.640;8.106;2022-12-29T12:11:54;4.53;;;1.37;;
10633;SDS011;5365;51.640;8.106;2022-12-29T12:14:31;3.50;;;1.43;;
10633;SDS011;5365;51.640;8.106;2022-12-29T12:17:19;1.97;;;1.10;;
10633;SDS011;5365;51.640;8.106;2022-12-29T12:19:52;2.20;;;1.30;;
10633;SDS011;5365;51.640;8.106;2022-12-29T12:25:04;3.87;;;1.40;;
10633;SDS011;5365;51.640;8.106;2022-12-29T12:27:33;4.47;;;1.13;;
10633;SDS011;5365;51.640;8.106;2022-12-29T12:30:07;5.80;;;1.43;;
10633;SDS011;5365;51.640;8.106;2022-12-29T12:35:04;3.37;;;1.40;;
10633;SDS011;5365;51.640;8.106;2022-12-29T12:58:59;5.33;;;1.40;;
10633;SDS011;5365;51.640;8.106;2022-12-29T13:09:45;3.10;;;0.90;;
10633;SDS011;5365;51.640;8.106;2022-12-29T13:22:43;2.83;;;1.00;;
10633;SDS011;5365;51.640;8.106;2022-12-29T13:38:11;3.60;;;1.10;;
10633;SDS011;5365;51.640;8.106;2022-12-29T13:40:36;4.17;;;1.13;;
10633;SDS011;5365;51.640;8.106;2022-12-29T13:43:01;4.93;;;1.43;;
10633;SDS011;5365;51.640;8.106;2022-12-29T13:45:24;2.97;;;1.40;;
10633;SDS011;5365;51.640;8.106;2022-12-29T13:47:54;2.03;;;1.20;;
10633;SDS011;5365;51.640;8.106;2022-12-29T13:50:25;1.77;;;1.20;;
10633;SDS011;5365;51.640;8.106;2022-12-29T13:55:45;4.00;;;1.40;;
10633;SDS011;5365;51.640;8.106;2022-12-29T14:03:41;4.13;;;1.27;;
10633;SDS011;5365;51.640;8.106;2022-12-29T14:08:47;4.70;;;1.17;;
10633;SDS011;5365;51.640;8.106;2022-12-29T14:11:10;5.00;;;1.57;;
10633;SDS011;5365;51.640;8.106;2022-12-29T14:13:33;3.33;;;1.37;;
10633;SDS011;5365;51.640;8.106;2022-12-29T14:15:59;3.77;;;1.13;;
10633;SDS011;5365;51.640;8.106;2022-12-29T14:18:31;4.97;;;1.80;;
10633;SDS011;5365;51.640;8.106;2022-12-29T14:21:02;4.07;;;1.37;;
10633;SDS011;5365;51.640;8.106;2022-12-29T14:23:28;2.83;;;1.07;;
10633;SDS011;5365;51.640;8.106;2022-12-29T14:28:29;6.73;;;1.20;;
10633;SDS011;5365;51.640;8.106;2022-12-29T14:30:52;3.47;;;1.10;;
10633;SDS011;5365;51.640;8.106;2022-12-29T14:33:15;2.87;;;1.10;;
10633;SDS011;5365;51.640;8.106;2022-12-29T14:35:39;1.60;;;1.00;;
10633;SDS011;5365;51.640;8.106;2022-12-29T14:38:06;1.80;;;0.93;;
10633;SDS011;5365;51.640;8.106;2022-12-29T14:40:29;3.70;;;1.30;;
10633;SDS011;5365;51.640;8.106;2022-12-29T14:42:51;2.07;;;1.03;;
10633;SDS011;5365;51.640;8.106;2022-12-29T14:47:37;2.83;;;1.40;;
10633;SDS011;5365;51.640;8.106;2022-12-29T14:50:13;5.30;;;1.20;;
10633;SDS011;5365;51.640;8.106;2022-12-29T14:57:39;6.20;;;1.40;;
10633;SDS011;5365;51.640;8.106;2022-12-29T15:00:07;4.40;;;1.50;;
10633;SDS011;5365;51.640;8.106;2022-12-29T15:05:33;2.57;;;1.10;;
10633;SDS011;5365;51.640;8.106;2022-12-29T15:08:04;3.77;;;1.30;;
10633;SDS011;5365;51.640;8.106;2022-12-29T15:10:26;4.00;;;1.60;;
10633;SDS011;5365;51.640;8.106;2022-12-29T15:13:00;3.20;;;1.40;;
10633;SDS011;5365;51.640;8.106;2022-12-29T15:15:25;1.93;;;1.10;;
10633;SDS011;5365;51.640;8.106;2022-12-29T15:17:48;4.73;;;1.20;;
10633;SDS011;5365;51.640;8.106;2022-12-29T15:20:14;2.57;;;1.03;;
10633;SDS011;5365;51.640;8.106;2022-12-29T15:22:45;3.90;;;1.37;;
10633;SDS011;5365;51.640;8.106;2022-12-29T15:25:16;3.03;;;1.33;;
10633;SDS011;5365;51.640;8.106;2022-12-29T15:27:39;3.97;;;1.23;;
10633;SDS011;5365;51.640;8.106;2022-12-29T15:30:03;2.13;;;1.23;;
10633;SDS011;5365;51.640;8.106;2022-12-29T15:32:26;2.80;;;1.20;;
10633;SDS011;5365;51.640;8.106;2022-12-29T15:34:50;2.83;;;1.30;;
10633;SDS011;5365;51.640;8.106;2022-12-29T15:37:46;1.50;;;0.80;;
10633;SDS011;5365;51.640;8.106;2022-12-29T15:40:01;4.00;;;0.90;;
10633;SDS011;5365;51.640;8.106;2022-12-29T15:42:29;1.80;;;0.80;;
10633;SDS011;5365;51.640;8.106;2022-12-29T15:44:53;3.60;;;1.00;;
10633;SDS011;5365;51.640;8.106;2022-12-29T15:47:24;2.63;;;1.07;;
10633;SDS011;5365;51.640;8.106;2022-12-29T15:49:47;2.83;;;0.90;;
10633;SDS011;5365;51.640;8.106;2022-12-29T15:52:10;4.50;;;1.17;;
10633;SDS011;5365;51.640;8.106;2022-12-29T15:54:34;3.00;;;1.30;;
10633;SDS011;5365;51.640;8.106;2022-12-29T15:56:57;3.37;;;1.07;;
10633;SDS011;5365;51.640;8.106;2022-12-29T15:59:30;2.07;;;1.23;;
10633;SDS011;5365;51.640;8.106;2022-12-29T16:01:56;2.10;;;1.03;;
10633;SDS011;5365;51.640;8.106;2022-12-29T16:04:19;3.73;;;1.10;;
10633;SDS011;5365;51.640;8.106;2022-12-29T16:06:45;1.63;;;0.90;;
10633;SDS011;5365;51.640;8.106;2022-12-29T16:09:17;1.23;;;0.83;;
10633;SDS011;5365;51.640;8.106;2022-12-29T16:11:43;2.03;;;0.90;;
10633;SDS011;5365;51.640;8.106;2022-12-29T16:17:02;3.03;;;1.03;;
10633;SDS011;5365;51.640;8.106;2022-12-29T16:19:28;1.43;;;1.00;;
10633;SDS011;5365;51.640;8.106;2022-12-29T16:21:54;2.27;;;0.90;;
10633;SDS011;5365;51.640;8.106;2022-12-29T16:24:17;2.10;;;1.00;;
10633;SDS011;5365;51.640;8.106;2022-12-29T16:26:45;2.20;;;0.90;;
10633;SDS011;5365;51.640;8.106;2022-12-29T16:29:11;1.50;;;0.77;;
10633;SDS011;5365;51.640;8.106;2022-12-29T16:31:47;2.60;;;0.93;;
10633;SDS011;5365;51.640;8.106;2022-12-29T16:34:25;2.67;;;1.33;;
10633;SDS011;5365;51.640;8.106;2022-12-29T16:37:00;3.57;;;1.37;;
10633;SDS011;5365;51.640;8.106;2022-12-29T16:41:53;2.23;;;0.93;;
10633;SDS011;5365;51.640;8.106;2022-12-29T16:44:19;2.53;;;1.10;;
10633;SDS011;5365;51.640;8.106;2022-12-29T16:49:25;2.00;;;1.40;;
10633;SDS011;5365;51.640;8.106;2022-12-29T16:51:48;2.67;;;1.20;;
10633;SDS011;5365;51.640;8.106;2022-12-29T16:54:18;1.13;;;1.03;;
10633;SDS011;5365;51.640;8.106;2022-12-29T16:56:42;2.03;;;1.37;;
10633;SDS011;5365;51.640;8.106;2022-12-29T17:01:47;2.77;;;1.43;;
10633;SDS011;5365;51.640;8.106;2022-12-29T17:04:10;2.87;;;1.23;;
10633;SDS011;5365;51.640;8.106;2022-12-29T17:06:32;2.83;;;1.57;;
10633;SDS011;5365;51.640;8.106;2022-12-29T17:08:54;2.63;;;1.23;;
10633;SDS011;5365;51.640;8.106;2022-12-29T17:11:21;4.63;;;1.20;;
10633;SDS011;5365;51.640;8.106;2022-12-29T17:14:05;2.37;;;1.20;;
10633;SDS011;5365;51.640;8.106;2022-12-29T17:16:36;3.00;;;1.60;;
10633;SDS011;5365;51.640;8.106;2022-12-29T17:18:58;3.07;;;1.30;;
10633;SDS011;5365;51.640;8.106;2022-12-29T17:21:20;3.67;;;1.40;;
10633;SDS011;5365;51.640;8.106;2022-12-29T17:23:41;5.77;;;1.50;;
10633;SDS011;5365;51.640;8.106;2022-12-29T17:26:03;2.97;;;1.57;;
10633;SDS011;5365;51.640;8.106;2022-12-29T17:28:26;5.70;;;1.27;;
10633;SDS011;5365;51.640;8.106;2022-12-29T17:30:49;3.80;;;1.07;;
10633;SDS011;5365;51.640;8.106;2022-12-29T17:33:14;6.23;;;1.70;;
10633;SDS011;5365;51.640;8.106;2022-12-29T17:35:37;2.53;;;0.93;;
10633;SDS011;5365;51.640;8.106;2022-12-29T17:37:59;1.80;;;1.27;;
10633;SDS011;5365;51.640;8.106;2022-12-29T17:40:25;1.17;;;0.97;;
10633;SDS011;5365;51.640;8.106;2022-12-29T17:42:49;3.70;;;1.50;;